createdAt,value
2024-03-14T00:00:00.187Z,89
2024-03-14T00:05:00.134Z,89
2024-03-14T00:10:00.125Z,89
2024-03-14T00:15:00.173Z,89
2024-03-14T00:20:00.140Z,88
2024-03-14T00:25:00.146Z,88
2024-03-14T00:30:00.133Z,87
2024-03-14T00:35:00.118Z,86
2024-03-14T00:40:00.143Z,86
2024-03-14T00:45:00.159Z,86
2024-03-14T00:50:00.127Z,86
2024-03-14T00:55:00.133Z,86
2024-03-14T01:00:00.323Z,86
2024-03-14T01:05:00.190Z,86
2024-03-14T01:10:00.106Z,86
2024-03-14T01:15:00.217Z,86
2024-03-14T01:20:00.146Z,86
2024-03-14T01:25:00.115Z,86
2024-03-14T01:30:00.139Z,85
2024-03-14T01:35:00.116Z,85
2024-03-14T01:40:00.205Z,86
2024-03-14T01:45:00.161Z,85
2024-03-14T01:50:00.179Z,85
2024-03-14T01:55:00.129Z,85
2024-03-14T02:00:00.317Z,85
2024-03-14T02:05:00.120Z,85
2024-03-14T02:10:00.121Z,85
2024-03-14T02:15:00.210Z,85
2024-03-14T02:20:00.182Z,85
2024-03-14T02:25:00.163Z,85
2024-03-14T02:30:00.186Z,85
2024-03-14T02:35:00.148Z,85
2024-03-14T02:40:00.143Z,85
2024-03-14T02:45:00.152Z,85
2024-03-14T02:50:00.128Z,86
2024-03-14T02:55:00.123Z,86
2024-03-14T03:00:00.212Z,86
2024-03-14T03:05:00.163Z,87
2024-03-14T03:10:00.116Z,87
2024-03-14T03:15:00.141Z,87
2024-03-14T03:20:00.139Z,88
2024-03-14T03:25:00.120Z,88
2024-03-14T03:30:00.223Z,88
2024-03-14T03:35:00.165Z,88
2024-03-14T03:40:00.124Z,88
2024-03-14T03:45:00.240Z,88
2024-03-14T03:50:00.167Z,88
2024-03-14T03:55:00.141Z,88
2024-03-14T04:00:00.149Z,89
2024-03-14T04:05:00.126Z,89
2024-03-14T04:10:00.167Z,88
2024-03-14T04:15:00.267Z,88
2024-03-14T04:20:00.149Z,88
2024-03-14T04:25:00.108Z,88
2024-03-14T04:30:00.141Z,89
2024-03-14T04:35:00.142Z,89
2024-03-14T04:40:00.140Z,89
2024-03-14T04:45:00.165Z,89
2024-03-14T04:50:00.134Z,89
2024-03-14T04:55:00.140Z,89
2024-03-14T05:00:00.230Z,89
2024-03-14T05:05:00.150Z,89
2024-03-14T05:10:00.157Z,89
2024-03-14T05:15:00.154Z,89
2024-03-14T05:20:00.169Z,89
2024-03-14T05:25:00.137Z,89
2024-03-14T05:30:00.139Z,89
2024-03-14T05:35:01.539Z,89
2024-03-14T05:40:00.108Z,89
2024-03-14T05:45:00.180Z,89
2024-03-14T05:50:00.995Z,90
2024-03-14T05:55:00.143Z,90
2024-03-14T06:00:00.135Z,90
2024-03-14T06:05:00.145Z,90
2024-03-14T06:10:00.147Z,90
2024-03-14T06:15:00.168Z,90
2024-03-14T06:20:00.192Z,90
2024-03-14T06:25:00.163Z,90
2024-03-14T06:30:00.165Z,90
2024-03-14T06:35:00.153Z,90
2024-03-14T06:40:00.172Z,90
2024-03-14T06:45:00.125Z,90
2024-03-14T06:50:00.566Z,90
2024-03-14T06:55:00.189Z,90
2024-03-14T07:00:00.223Z,90
2024-03-14T07:05:00.156Z,90
2024-03-14T07:10:00.121Z,90
2024-03-14T07:15:00.185Z,90
2024-03-14T07:20:00.175Z,90
2024-03-14T07:25:00.154Z,90
2024-03-14T07:30:00.138Z,90
2024-03-14T07:35:00.139Z,90
2024-03-14T07:40:00.140Z,90
2024-03-14T07:45:00.133Z,89
2024-03-14T07:50:00.156Z,89
2024-03-14T07:55:00.144Z,89
2024-03-14T08:00:00.213Z,89
2024-03-14T08:05:00.150Z,89
2024-03-14T08:10:00.134Z,88
2024-03-14T08:15:00.234Z,87
2024-03-14T08:20:00.142Z,86
2024-03-14T08:25:00.156Z,86
2024-03-14T08:30:00.205Z,85
2024-03-14T08:35:00.157Z,84
2024-03-14T08:40:00.171Z,82
2024-03-14T08:45:00.144Z,81
2024-03-14T08:50:00.144Z,79
2024-03-14T08:55:00.115Z,79
2024-03-14T09:00:00.162Z,77
2024-03-14T09:05:00.148Z,77
2024-03-14T09:10:00.107Z,77
2024-03-14T09:15:00.161Z,77
2024-03-14T09:20:00.164Z,76
2024-03-14T09:25:00.160Z,76
2024-03-14T09:30:00.143Z,76
2024-03-14T09:35:00.180Z,75
2024-03-14T09:40:00.120Z,73
2024-03-14T09:45:00.165Z,74
2024-03-14T09:50:00.147Z,73
2024-03-14T09:55:00.096Z,71
2024-03-14T10:00:00.173Z,71
2024-03-14T10:05:00.197Z,70
2024-03-14T10:10:00.405Z,69
2024-03-14T10:15:00.249Z,67
2024-03-14T10:20:00.168Z,69
2024-03-14T10:25:00.149Z,69
2024-03-14T10:30:00.107Z,68
2024-03-14T10:35:00.153Z,69
2024-03-14T10:40:00.139Z,69
2024-03-14T10:45:02.099Z,69
2024-03-14T10:50:00.168Z,70
2024-03-14T10:55:00.140Z,70
2024-03-14T11:00:00.160Z,71
2024-03-14T11:05:00.130Z,70
2024-03-14T11:10:00.103Z,69
2024-03-14T11:15:00.199Z,69
2024-03-14T11:20:00.145Z,69
2024-03-14T11:25:00.160Z,69
2024-03-14T11:30:00.161Z,67
2024-03-14T11:35:02.021Z,67
2024-03-14T11:40:00.157Z,65
2024-03-14T11:45:00.182Z,65
2024-03-14T11:50:00.157Z,64
2024-03-14T11:55:00.153Z,63
2024-03-14T12:00:06.773Z,61
2024-03-14T12:05:00.553Z,60
2024-03-14T12:10:00.122Z,61
2024-03-14T12:15:00.270Z,60
2024-03-14T12:20:00.150Z,61
2024-03-14T12:25:00.162Z,59
2024-03-14T12:30:00.164Z,59
2024-03-14T12:35:00.100Z,60
2024-03-14T12:40:00.142Z,59
2024-03-14T12:45:00.185Z,59
2024-03-14T12:50:00.174Z,58
2024-03-14T12:55:00.150Z,58
2024-03-14T13:00:00.201Z,58
2024-03-14T13:05:00.125Z,58
2024-03-14T13:10:00.127Z,56
2024-03-14T13:15:00.170Z,55
2024-03-14T13:20:00.147Z,55
2024-03-14T13:25:00.146Z,55
2024-03-14T13:30:00.133Z,55
2024-03-14T13:35:00.128Z,54
2024-03-14T13:40:00.161Z,55
2024-03-14T13:45:00.159Z,54
2024-03-14T13:50:00.142Z,55
2024-03-14T13:55:00.138Z,55
2024-03-14T14:00:00.149Z,54
2024-03-14T14:05:00.134Z,52
2024-03-14T14:10:00.113Z,53
2024-03-14T14:15:00.165Z,53
2024-03-14T14:20:00.160Z,53
2024-03-14T14:25:00.133Z,52
2024-03-14T14:30:00.173Z,51
2024-03-14T14:35:00.150Z,50
2024-03-14T14:40:00.193Z,50
2024-03-14T14:45:00.182Z,51
2024-03-14T14:50:00.113Z,49
2024-03-14T14:55:00.143Z,49
2024-03-14T15:00:00.143Z,49
2024-03-14T15:05:00.177Z,49
2024-03-14T15:10:00.378Z,48
2024-03-14T15:15:00.260Z,49
2024-03-14T15:20:00.150Z,50
2024-03-14T15:25:00.190Z,50
2024-03-14T15:30:00.194Z,49
2024-03-14T15:35:00.133Z,49
2024-03-14T15:40:00.161Z,49
2024-03-14T15:45:00.145Z,49
2024-03-14T15:50:00.157Z,50
2024-03-14T15:55:00.120Z,51
2024-03-14T16:00:00.175Z,52
2024-03-14T16:05:00.192Z,51
2024-03-14T16:10:00.292Z,51
2024-03-14T16:15:00.238Z,51
2024-03-14T16:20:00.361Z,52
2024-03-14T16:25:00.133Z,52
2024-03-14T16:30:00.159Z,53
2024-03-14T16:35:00.151Z,54
2024-03-14T16:40:00.183Z,55
2024-03-14T16:45:00.130Z,57
2024-03-14T16:50:00.153Z,57
2024-03-14T16:55:00.128Z,57
2024-03-14T17:00:00.144Z,58
2024-03-14T17:05:00.150Z,59
2024-03-14T17:10:00.129Z,60
2024-03-14T17:15:00.151Z,61
2024-03-14T17:20:00.149Z,61
2024-03-14T17:25:00.135Z,61
2024-03-14T17:30:00.147Z,62
2024-03-14T17:35:00.169Z,62
2024-03-14T17:40:00.206Z,63
2024-03-14T17:45:00.260Z,63
2024-03-14T17:50:00.205Z,63
2024-03-14T17:55:00.116Z,62
2024-03-14T18:00:00.207Z,62
2024-03-14T18:05:00.156Z,62
2024-03-14T18:10:00.094Z,62
2024-03-14T18:15:00.165Z,63
2024-03-14T18:20:00.194Z,63
2024-03-14T18:25:00.153Z,64
2024-03-14T18:30:00.272Z,65
2024-03-14T18:35:00.181Z,66
2024-03-14T18:40:00.137Z,66
2024-03-14T18:45:00.243Z,65
2024-03-14T18:50:00.165Z,65
2024-03-14T18:55:00.572Z,65
2024-03-14T19:00:00.286Z,65
2024-03-14T19:05:00.229Z,65
2024-03-14T19:10:00.187Z,66
2024-03-14T19:15:00.155Z,67
2024-03-14T19:20:00.163Z,66
2024-03-14T19:25:00.152Z,66
2024-03-14T19:30:00.545Z,66
2024-03-14T19:35:00.121Z,66
2024-03-14T19:40:00.116Z,66
2024-03-14T19:45:00.171Z,66
2024-03-14T19:50:00.193Z,66
2024-03-14T19:55:00.142Z,67
2024-03-14T20:00:00.201Z,67
2024-03-14T20:05:00.183Z,70
2024-03-14T20:10:00.129Z,71
2024-03-14T20:15:00.227Z,72
2024-03-14T20:20:00.196Z,73
2024-03-14T20:25:00.315Z,73
2024-03-14T20:30:00.310Z,74
2024-03-14T20:35:00.206Z,74
2024-03-14T20:40:01.184Z,75
2024-03-14T20:45:00.158Z,75
2024-03-14T20:50:00.305Z,76
2024-03-14T20:55:00.134Z,76
2024-03-14T21:00:00.206Z,76
2024-03-14T21:05:00.164Z,76
2024-03-14T21:10:00.141Z,76
2024-03-14T21:15:00.380Z,77
2024-03-14T21:20:00.204Z,77
2024-03-14T21:25:00.292Z,77
2024-03-14T21:30:00.259Z,77
2024-03-14T21:35:00.266Z,77
2024-03-14T21:40:00.208Z,78
2024-03-14T21:45:00.256Z,77
2024-03-14T21:50:00.167Z,78
2024-03-14T21:55:00.156Z,78
2024-03-14T22:00:00.189Z,78
2024-03-14T22:05:00.200Z,79
2024-03-14T22:10:00.145Z,79
2024-03-14T22:15:00.701Z,79
2024-03-14T22:20:00.355Z,80
2024-03-14T22:25:00.178Z,79
2024-03-14T22:30:00.287Z,77
2024-03-14T22:35:00.144Z,76
2024-03-14T22:40:00.206Z,75
2024-03-14T22:45:00.136Z,75
2024-03-14T22:50:00.147Z,74
2024-03-14T22:55:00.132Z,75
2024-03-14T23:00:00.153Z,75
2024-03-14T23:05:00.182Z,74
2024-03-14T23:10:00.142Z,75
2024-03-14T23:15:00.098Z,75
2024-03-14T23:20:00.189Z,75
2024-03-14T23:25:00.168Z,75
2024-03-14T23:30:00.144Z,76
2024-03-14T23:35:00.127Z,76
2024-03-14T23:40:00.117Z,77
2024-03-14T23:45:00.148Z,77
2024-03-14T23:50:00.178Z,78
2024-03-14T23:55:00.097Z,79
